createdAt,value
2018-09-18T00:01:09.249Z,98194.98
2018-09-18T00:06:14.907Z,98194.29
2018-09-18T00:08:44.896Z,98188.45
2018-09-18T00:11:15.063Z,98184.95
2018-09-18T00:13:45.058Z,98189.45
2018-09-18T00:16:15.021Z,98191.77
2018-09-18T00:18:45.465Z,98193.63
2018-09-18T00:21:15.518Z,98192.80
2018-09-18T00:23:45.729Z,98190.12
2018-09-18T00:26:15.762Z,98195.13
2018-09-18T00:28:46.163Z,98191.61
2018-09-18T00:31:16.183Z,98188.10
2018-09-18T00:33:46.283Z,98178.76
2018-09-18T00:36:16.424Z,98188.10
2018-09-18T00:38:46.637Z,98180.24
2018-09-18T00:41:16.708Z,98170.06
2018-09-18T00:43:46.984Z,98165.72
2018-09-18T00:46:17.001Z,98171.55
2018-09-18T00:48:47.038Z,98172.88
2018-09-18T00:51:17.121Z,98167.20
2018-09-18T00:53:47.221Z,98165.87
2018-09-18T00:56:17.364Z,98166.89
2018-09-18T00:58:47.524Z,98167.38
2018-09-18T01:01:17.731Z,98162.54
2018-09-18T01:03:47.720Z,98162.54
2018-09-18T01:06:17.800Z,98158.20
2018-09-18T01:08:47.790Z,98160.02
2018-09-18T01:11:17.894Z,98161.86
2018-09-18T01:13:47.979Z,98158.34
2018-09-18T01:16:18.132Z,98160.17
2018-09-18T01:18:48.208Z,98163.34
2018-09-18T01:21:18.163Z,98164.33
2018-09-18T01:23:48.204Z,98165.17
2018-09-18T01:26:18.277Z,98166.16
2018-09-18T01:28:48.460Z,98165.33
2018-09-18T01:31:18.466Z,98168.48
2018-09-18T01:33:48.714Z,98163.15
2018-09-18T01:36:18.710Z,98164.67
2018-09-18T01:38:48.831Z,98166.00
2018-09-18T01:41:18.825Z,98168.33
2018-09-18T01:43:49.066Z,98168.33
2018-09-18T01:46:19.049Z,98162.98
2018-09-18T01:48:49.237Z,98171.98
2018-09-18T01:51:19.163Z,98179.99
2018-09-18T01:53:49.311Z,98172.48
2018-09-18T01:56:19.330Z,98174.78
2018-09-18T01:58:49.448Z,98176.95
2018-09-18T02:01:19.485Z,98170.42
2018-09-18T02:03:49.478Z,98172.26
2018-09-18T02:06:19.589Z,98174.43
2018-09-18T02:08:49.841Z,98169.59
2018-09-18T02:11:19.890Z,98173.25
2018-09-18T02:13:49.834Z,98173.25
2018-09-18T02:16:19.808Z,98173.75
2018-09-18T02:18:49.826Z,98176.91
2018-09-18T02:21:19.828Z,98178.24
2018-09-18T02:23:49.866Z,98170.42
2018-09-18T02:26:19.785Z,98176.09
2018-09-18T02:28:49.854Z,98171.26
2018-09-18T02:31:20.012Z,98166.41
2018-09-18T02:33:50.182Z,98167.41
2018-09-18T02:36:20.310Z,98167.06
2018-09-18T02:38:50.973Z,98177.59
2018-09-18T02:41:20.884Z,98172.89
2018-09-18T02:43:50.891Z,98175.06
2018-09-18T02:46:20.974Z,98177.73
2018-09-18T02:48:50.964Z,98180.91
2018-09-18T02:51:21.023Z,98179.22
2018-09-18T02:53:51.186Z,98172.55
2018-09-18T02:56:21.303Z,98175.71
2018-09-18T02:58:51.333Z,98173.20
2018-09-18T03:01:21.337Z,98171.37
2018-09-18T03:03:51.453Z,98171.52
2018-09-18T03:08:43.065Z,98179.21
2018-09-18T03:11:13.039Z,98179.52
2018-09-18T03:13:43.025Z,98180.55
2018-09-18T03:16:13.536Z,98177.04
2018-09-18T03:18:43.633Z,98173.03
2018-09-18T03:21:13.632Z,98176.69
2018-09-18T03:23:43.726Z,98176.20
2018-09-18T03:26:13.756Z,98170.02
2018-09-18T03:28:43.986Z,98168.34
2018-09-18T03:31:14.197Z,98167.84
2018-09-18T03:33:44.254Z,98167.01
2018-09-18T03:36:14.305Z,98171.02
2018-09-18T03:38:44.438Z,98167.50
2018-09-18T03:41:14.693Z,98172.50
2018-09-18T03:43:44.721Z,98177.00
2018-09-18T03:46:14.976Z,98176.50
2018-09-18T03:48:44.987Z,98170.32
2018-09-18T03:51:15.059Z,98170.32
2018-09-18T03:53:45.179Z,98172.16
2018-09-18T03:56:15.481Z,98166.81
2018-09-18T03:58:45.567Z,98168.98
2018-09-18T04:01:22.072Z,98162.96
2018-09-18T04:03:52.287Z,98169.83
2018-09-18T04:06:22.474Z,98158.81
2018-09-18T04:08:52.397Z,98163.31
2018-09-18T04:11:22.570Z,98164.30
2018-09-18T04:13:52.625Z,98159.45
2018-09-18T04:16:24.411Z,98164.79
2018-09-18T04:18:55.001Z,98164.30
2018-09-18T04:21:30.283Z,98166.66
2018-09-18T04:24:00.313Z,98171.98
2018-09-18T04:26:30.323Z,98164.63
2018-09-18T04:29:00.355Z,98177.47
2018-09-18T04:31:30.443Z,98176.48
2018-09-18T04:34:00.477Z,98166.80
2018-09-18T04:36:31.204Z,98171.64
2018-09-18T04:39:01.239Z,98177.47
2018-09-18T04:41:31.293Z,98172.63
2018-09-18T04:44:01.324Z,98173.97
2018-09-18T04:46:31.341Z,98178.47
2018-09-18T04:49:01.736Z,98178.81
2018-09-18T04:51:31.723Z,98178.47
2018-09-18T04:54:01.753Z,98175.46
2018-09-18T04:56:32.139Z,98172.48
2018-09-18T04:59:02.249Z,98170.66
2018-09-18T05:01:32.377Z,98167.16
2018-09-18T05:04:02.444Z,98173.33
2018-09-18T05:06:32.733Z,98180.70
2018-09-18T05:09:02.845Z,98180.55
2018-09-18T05:11:32.835Z,98181.38
2018-09-18T05:14:03.010Z,98179.52
2018-09-18T05:16:33.643Z,98181.70
2018-09-18T05:19:03.621Z,98188.56
2018-09-18T05:21:33.875Z,98185.40
2018-09-18T05:24:04.141Z,98184.75
2018-09-18T05:26:34.130Z,98188.07
2018-09-18T05:29:04.523Z,98193.25
2018-09-18T05:31:34.644Z,98191.77
2018-09-18T05:34:04.710Z,98190.93
2018-09-18T05:36:35.129Z,98191.77
2018-09-18T05:39:07.367Z,98192.92
2018-09-18T05:41:37.481Z,98190.10
2018-09-18T05:44:39.852Z,98194.11
2018-09-18T05:47:10.952Z,98194.95
2018-09-18T05:49:42.262Z,98192.63
2018-09-18T05:52:12.406Z,98190.79
2018-09-18T05:54:42.374Z,98188.62
2018-09-18T05:57:12.540Z,98191.28
2018-09-18T05:59:42.542Z,98190.45
2018-09-18T06:02:12.811Z,98193.12
2018-09-18T06:04:42.845Z,98193.95
2018-09-18T06:07:12.985Z,98195.29
2018-09-18T06:09:43.087Z,98193.84
2018-09-18T06:12:13.254Z,98196.51
2018-09-18T06:14:43.292Z,98197.13
2018-09-18T06:17:13.597Z,98196.77
2018-09-18T06:19:44.114Z,98199.30
2018-09-18T06:22:14.312Z,98195.44
2018-09-18T06:24:44.377Z,98196.28
2018-09-18T06:27:14.430Z,98192.28
2018-09-18T06:29:44.426Z,98195.78
2018-09-18T06:32:14.624Z,98201.13
2018-09-18T06:34:44.826Z,98202.61
2018-09-18T06:37:17.694Z,98199.44
2018-09-18T06:39:47.705Z,98200.63
2018-09-18T06:42:17.847Z,98210.96
2018-09-18T06:44:48.332Z,98202.95
2018-09-18T06:47:18.549Z,98207.30
2018-09-18T06:49:48.613Z,98202.95
2018-09-18T06:52:19.112Z,98211.45
2018-09-18T06:54:49.343Z,98209.48
2018-09-18T06:57:19.373Z,98216.15
2018-09-18T06:59:49.471Z,98217.36
2018-09-18T07:02:19.613Z,98218.55
2018-09-18T07:04:49.829Z,98212.87
2018-09-18T07:07:19.883Z,98223.05
2018-09-18T07:09:49.893Z,98219.19
2018-09-18T07:12:20.108Z,98213.36
2018-09-18T07:14:50.201Z,98217.03
2018-09-18T07:17:20.213Z,98208.37
2018-09-18T07:19:50.374Z,98207.53
2018-09-18T07:22:20.447Z,98212.72
2018-09-18T07:24:50.554Z,98209.86
2018-09-18T07:27:20.777Z,98209.71
2018-09-18T07:29:50.795Z,98210.20
2018-09-18T07:32:20.940Z,98203.53
2018-09-18T07:34:51.157Z,98201.55
2018-09-18T07:37:21.637Z,98206.55
2018-09-18T07:39:51.600Z,98210.06
2018-09-18T07:42:21.565Z,98204.03
2018-09-18T07:44:51.635Z,98206.35
2018-09-18T07:47:21.653Z,98202.34
2018-09-18T07:49:51.825Z,98206.05
2018-09-18T07:52:22.043Z,98207.38
2018-09-18T07:54:52.136Z,98205.20
2018-09-18T07:57:22.368Z,98206.19
2018-09-18T07:59:52.398Z,98200.85
2018-09-18T08:02:22.582Z,98199.17
2018-09-18T08:04:52.710Z,98202.31
2018-09-18T08:07:22.904Z,98203.30
2018-09-18T08:09:52.914Z,98198.11
2018-09-18T08:12:23.091Z,98201.63
2018-09-18T08:14:53.046Z,98197.11
2018-09-18T08:17:24.467Z,98195.77
2018-09-18T08:19:54.934Z,98195.28
2018-09-18T08:22:24.950Z,98198.94
2018-09-18T08:24:55.017Z,98202.10
2018-09-18T08:27:25.054Z,98196.77
2018-09-18T08:29:54.994Z,98198.94
2018-09-18T08:32:25.118Z,98198.09
2018-09-18T08:34:55.410Z,98199.44
2018-09-18T08:37:25.485Z,98193.60
2018-09-18T08:39:55.599Z,98194.59
2018-09-18T08:42:25.520Z,98198.09
2018-09-18T08:44:55.546Z,98198.09
2018-09-18T08:47:25.489Z,98190.09
2018-09-18T08:49:55.600Z,98187.91
2018-09-18T08:52:25.646Z,98190.09
2018-09-18T08:54:55.726Z,98190.44
2018-09-18T08:57:25.825Z,98187.91
2018-09-18T08:59:55.845Z,98188.76
2018-09-18T09:02:26.163Z,98183.91
2018-09-18T09:04:56.209Z,98183.91
2018-09-18T09:07:26.044Z,98183.08
2018-09-18T09:09:56.157Z,98179.91
2018-09-18T09:12:26.278Z,98179.91
2018-09-18T09:14:56.412Z,98187.42
2018-09-18T09:17:26.300Z,98187.58
2018-09-18T09:19:56.395Z,98184.06
2018-09-18T09:22:26.514Z,98190.59
2018-09-18T09:24:56.688Z,98179.07
2018-09-18T09:27:26.757Z,98186.09
2018-09-18T09:29:56.946Z,98181.59
2018-09-18T09:32:27.100Z,98177.24
2018-09-18T09:34:57.058Z,98182.92
2018-09-18T09:37:27.139Z,98177.59
2018-09-18T09:39:57.083Z,98173.58
2018-09-18T09:42:27.056Z,98174.42
2018-09-18T09:44:57.504Z,98173.58
2018-09-18T09:47:27.420Z,98173.09
2018-09-18T09:49:57.430Z,98162.56
2018-09-18T09:52:27.366Z,98162.56
2018-09-18T09:54:57.383Z,98161.38
2018-09-18T09:57:27.382Z,98158.91
2018-09-18T09:59:57.523Z,98151.73
2018-09-18T10:02:28.363Z,98158.75
2018-09-18T10:04:59.141Z,98154.91
2018-09-18T10:07:29.104Z,98155.40
2018-09-18T10:09:59.128Z,98158.41
2018-09-18T10:12:29.149Z,98153.41
2018-09-18T10:14:59.236Z,98152.39
2018-09-18T10:17:29.239Z,98152.08
2018-09-18T10:19:59.170Z,98149.41
2018-09-18T10:22:29.301Z,98147.23
2018-09-18T10:24:59.386Z,98144.07
2018-09-18T10:27:29.402Z,98145.72
2018-09-18T10:29:59.491Z,98143.05
2018-09-18T10:32:29.641Z,98137.71
2018-09-18T10:34:59.658Z,98135.88
2018-09-18T10:37:29.713Z,98134.89
2018-09-18T10:39:59.722Z,98129.06
2018-09-18T10:42:29.864Z,98129.41
2018-09-18T10:45:00.083Z,98121.89
2018-09-18T10:47:29.999Z,98118.73
2018-09-18T10:50:00.013Z,98121.62
2018-09-18T10:52:30.044Z,98120.28
2018-09-18T10:55:00.179Z,98111.59
2018-09-18T10:57:30.282Z,98112.13
2018-09-18T11:00:00.360Z,98107.09
2018-09-18T11:02:30.298Z,98104.27
2018-09-18T11:05:00.321Z,98108.13
2018-09-18T11:07:30.320Z,98108.96
2018-09-18T11:10:00.542Z,98107.28
2018-09-18T11:12:30.543Z,98108.62
2018-09-18T11:15:00.516Z,98106.63
2018-09-18T11:17:30.566Z,98106.98
2018-09-18T11:20:00.779Z,98105.14
2018-09-18T11:22:30.910Z,98104.46
2018-09-18T11:25:00.884Z,98092.45
2018-09-18T11:27:30.877Z,98090.62
2018-09-18T11:30:01.028Z,98095.80
2018-09-18T11:32:31.072Z,98085.63
2018-09-18T11:35:01.231Z,98087.45
2018-09-18T11:37:31.197Z,98091.49
2018-09-18T11:40:01.196Z,98088.82
2018-09-18T11:42:31.458Z,98091.83
2018-09-18T11:45:01.689Z,98090.50
2018-09-18T11:47:31.764Z,98090.31
2018-09-18T11:50:02.036Z,98084.97
2018-09-18T11:52:32.186Z,98088.66
2018-09-18T11:55:02.682Z,98085.00
2018-09-18T11:57:32.786Z,98081.34
2018-09-18T12:00:02.935Z,98074.17
2018-09-18T12:02:33.195Z,98071.00
2018-09-18T12:05:03.278Z,98068.48
2018-09-18T12:07:33.202Z,98068.17
2018-09-18T12:10:03.698Z,98071.84
2018-09-18T12:12:34.044Z,98065.84
2018-09-18T12:15:04.420Z,98073.86
2018-09-18T12:17:34.576Z,98067.02
2018-09-18T12:20:04.781Z,98059.01
2018-09-18T12:22:34.850Z,98058.52
2018-09-18T12:25:05.092Z,98055.34
2018-09-18T12:27:35.347Z,98053.52
2018-09-18T12:30:05.970Z,98054.53
2018-09-18T12:32:36.193Z,98058.34
2018-09-18T12:35:06.739Z,98049.19
2018-09-18T12:37:38.584Z,98048.19
2018-09-18T12:40:09.131Z,98043.00
2018-09-18T12:42:40.040Z,98037.16
2018-09-18T12:45:10.174Z,98039.52
2018-09-18T12:47:40.163Z,98031.50
2018-09-18T12:50:10.412Z,98042.70
2018-09-18T12:52:40.377Z,98034.68
2018-09-18T12:55:10.559Z,98024.83
2018-09-18T12:57:43.001Z,98023.34
2018-09-18T13:00:13.230Z,98029.02
2018-09-18T13:02:43.487Z,98030.20
2018-09-18T13:05:13.585Z,98019.53
2018-09-18T13:07:43.673Z,98012.51
2018-09-18T13:10:13.814Z,98019.20
2018-09-18T13:12:43.902Z,98008.52
2018-09-18T13:15:14.040Z,98012.53
2018-09-18T13:17:44.138Z,98010.53
2018-09-18T13:20:14.467Z,98002.02
2018-09-18T13:22:44.641Z,98000.67
2018-09-18T13:25:14.895Z,97995.98
2018-09-18T13:27:45.010Z,97996.98
2018-09-18T13:30:15.278Z,97988.47
2018-09-18T13:32:45.519Z,97989.80
2018-09-18T13:35:15.528Z,97993.65
2018-09-18T13:37:45.503Z,97988.48
2018-09-18T13:40:15.702Z,97990.49
2018-09-18T13:42:46.272Z,97986.48
2018-09-18T13:45:16.768Z,97978.79
2018-09-18T13:47:46.897Z,97981.48
2018-09-18T13:50:17.271Z,97975.78
2018-09-18T13:52:47.298Z,97978.29
2018-09-18T13:55:17.526Z,97970.44
2018-09-18T13:57:47.519Z,97961.91
2018-09-18T14:00:17.487Z,97981.13
2018-09-18T14:02:47.527Z,97971.11
2018-09-18T14:05:17.635Z,97977.62
2018-09-18T14:07:47.563Z,97980.14
2018-09-18T14:10:17.637Z,97962.23
2018-09-18T14:12:47.905Z,97959.90
2018-09-18T14:15:18.009Z,97971.42
2018-09-18T14:17:48.019Z,97968.77
2018-09-18T14:20:17.990Z,97969.94
2018-09-18T14:22:48.063Z,97969.42
2018-09-18T14:25:18.097Z,97964.91
2018-09-18T14:27:48.031Z,97963.58
2018-09-18T14:30:18.090Z,97957.73
2018-09-18T14:32:48.019Z,97956.72
2018-09-18T14:35:18.146Z,97959.91
2018-09-18T14:37:48.219Z,97962.09
2018-09-18T14:40:18.331Z,97955.88
2018-09-18T14:42:48.190Z,97957.92
2018-09-18T14:45:18.275Z,97952.88
2018-09-18T14:47:49.327Z,97950.56
2018-09-18T14:50:19.312Z,97954.73
2018-09-18T14:52:49.289Z,97954.39
2018-09-18T14:55:19.530Z,97952.06
2018-09-18T14:57:49.546Z,97946.38
2018-09-18T15:00:19.570Z,97947.87
2018-09-18T15:02:49.578Z,97945.39
2018-09-18T15:05:19.684Z,97948.56
2018-09-18T15:07:49.612Z,97945.39
2018-09-18T15:10:19.851Z,97935.67
2018-09-18T15:12:49.876Z,97935.84
2018-09-18T15:15:19.901Z,97926.81
2018-09-18T15:23:41.084Z,97933.52
2018-09-18T15:32:18.621Z,97936.53
2018-09-18T15:34:49.042Z,97926.14
2018-09-18T15:37:19.066Z,97929.84
2018-09-18T15:39:49.128Z,97932.83
2018-09-18T15:42:19.109Z,97934.34
2018-09-18T15:44:49.272Z,97925.66
2018-09-18T15:47:19.363Z,97921.81
2018-09-18T15:49:49.494Z,97919.64
2018-09-18T15:52:19.642Z,97923.64
2018-09-18T15:54:49.736Z,97921.31
2018-09-18T15:57:19.810Z,97926.16
2018-09-18T15:59:49.810Z,97924.66
2018-09-18T16:02:19.902Z,97923.80
2018-09-18T16:04:50.109Z,97925.63
2018-09-18T16:07:20.160Z,97915.97
2018-09-18T16:09:50.144Z,97923.64
2018-09-18T16:12:20.467Z,97925.45
2018-09-18T16:14:50.694Z,97921.42
2018-09-18T16:17:20.714Z,97925.59
2018-09-18T16:19:51.067Z,97924.12
2018-09-18T16:22:21.218Z,97930.30
2018-09-18T16:24:51.410Z,97929.61
2018-09-18T16:27:21.545Z,97923.72
2018-09-18T16:29:51.613Z,97928.54
2018-09-18T16:32:21.766Z,97928.54
2018-09-18T16:34:52.081Z,97927.09
2018-09-18T16:37:22.236Z,97925.41
2018-09-18T16:39:52.370Z,97929.11
2018-09-18T16:42:22.568Z,97934.13
2018-09-18T16:44:52.698Z,97930.45
2018-09-18T16:47:23.544Z,97935.97
2018-09-18T16:49:54.113Z,97930.05
2018-09-18T16:52:25.604Z,97931.72
2018-09-18T16:54:56.367Z,97927.53
2018-09-18T16:57:26.966Z,97935.92
2018-09-18T16:59:57.136Z,97926.59
2018-09-18T17:02:29.596Z,97939.45
2018-09-18T17:05:02.324Z,97939.45
2018-09-18T17:07:32.485Z,97937.64
2018-09-18T17:10:03.329Z,97946.48
2018-09-18T17:12:33.611Z,97946.52
2018-09-18T17:15:03.969Z,97955.20
2018-09-18T17:17:35.071Z,97956.20
2018-09-18T17:20:05.543Z,97960.21
2018-09-18T17:22:35.941Z,97960.57
2018-09-18T17:25:06.013Z,97970.42
2018-09-18T17:27:36.399Z,97967.91
2018-09-18T17:30:06.926Z,97968.08
2018-09-18T17:32:36.899Z,97970.41
2018-09-18T17:35:07.677Z,97975.92
2018-09-18T17:37:37.861Z,97976.62
2018-09-18T17:40:07.955Z,97981.13
2018-09-18T17:42:37.933Z,97982.97
2018-09-18T17:45:08.507Z,97980.80
2018-09-18T17:47:38.636Z,97983.97
2018-09-18T17:50:08.793Z,97983.79
2018-09-18T17:52:38.808Z,97989.63
2018-09-18T17:55:08.939Z,97994.84
2018-09-18T17:57:39.041Z,97993.33
2018-09-18T18:00:09.675Z,98000.84
2018-09-18T18:02:39.886Z,98010.70
2018-09-18T18:05:10.374Z,98007.69
2018-09-18T18:07:41.011Z,98013.71
2018-09-18T18:10:11.904Z,98012.03
2018-09-18T18:12:42.307Z,98011.20
2018-09-18T18:15:12.828Z,98012.53
2018-09-18T18:17:43.192Z,98016.20
2018-09-18T18:20:13.371Z,98020.22
2018-09-18T18:22:45.104Z,98024.38
2018-09-18T18:25:15.468Z,98026.72
2018-09-18T18:27:45.588Z,98031.08
2018-09-18T18:30:15.732Z,98024.90
2018-09-18T18:32:46.211Z,98034.09
2018-09-18T18:35:18.183Z,98037.60
2018-09-18T18:37:48.490Z,98033.25
2018-09-18T18:40:18.961Z,98036.42
2018-09-18T18:42:49.159Z,98041.77
2018-09-18T18:45:19.610Z,98047.95
2018-09-18T18:47:50.826Z,98049.29
2018-09-18T18:50:20.990Z,98053.30
2018-09-18T18:52:51.090Z,98056.81
2018-09-18T18:55:21.487Z,98057.31
2018-09-18T18:57:51.540Z,98063.48
2018-09-18T19:00:21.609Z,98068.84
2018-09-18T19:02:51.787Z,98066.66
2018-09-18T19:05:22.330Z,98076.85
2018-09-18T19:07:52.315Z,98076.35
2018-09-18T19:10:25.242Z,98075.16
2018-09-18T19:12:55.307Z,98082.69
2018-09-18T19:15:25.434Z,98086.70
2018-09-18T19:17:55.511Z,98093.22
2018-09-18T19:20:27.633Z,98091.55
2018-09-18T19:22:57.883Z,98090.70
2018-09-18T19:25:28.143Z,98087.53
2018-09-18T19:27:58.187Z,98088.03
2018-09-18T19:30:28.288Z,98098.38
2018-09-18T19:32:58.520Z,98090.70
2018-09-18T19:35:29.287Z,98090.36
2018-09-18T19:37:59.407Z,98085.02
2018-09-18T19:40:32.021Z,98090.02
2018-09-18T19:43:02.116Z,98097.73
2018-09-18T19:45:32.247Z,98098.88
2018-09-18T19:48:02.607Z,98100.91
2018-09-18T19:50:36.703Z,98102.05
2018-09-18T19:53:07.286Z,98106.91
2018-09-18T19:55:37.421Z,98108.73
2018-09-18T19:58:07.835Z,98109.77
2018-09-18T20:00:38.016Z,98112.94
2018-09-18T20:03:08.353Z,98112.94
2018-09-18T20:05:38.506Z,98114.27
2018-09-18T20:08:09.106Z,98117.78
2018-09-18T20:10:39.243Z,98109.42
2018-09-18T20:13:09.473Z,98117.44
2018-09-18T20:15:39.656Z,98121.95
2018-09-18T20:18:09.638Z,98123.78
2018-09-18T20:20:40.490Z,98127.80
2018-09-18T20:23:10.963Z,98129.12
2018-09-18T20:25:41.148Z,98122.45
2018-09-18T20:28:11.151Z,98121.61
2018-09-18T20:30:41.203Z,98126.95
2018-09-18T20:33:11.230Z,98125.62
2018-09-18T20:35:41.350Z,98124.78
2018-09-18T20:38:12.547Z,98133.63
2018-09-18T20:40:42.729Z,98128.79
2018-09-18T20:43:12.823Z,98139.48
2018-09-18T20:45:43.574Z,98137.80
2018-09-18T20:48:13.781Z,98138.30
2018-09-18T20:50:43.828Z,98140.31
2018-09-18T20:53:13.819Z,98139.14
2018-09-18T20:55:43.751Z,98138.30
2018-09-18T20:58:13.781Z,98147.66
2018-09-18T21:00:43.766Z,98142.80
2018-09-18T21:03:13.869Z,98145.48
2018-09-18T21:05:43.987Z,98141.13
2018-09-18T21:08:14.101Z,98144.14
2018-09-18T21:10:44.570Z,98141.13
2018-09-18T21:13:14.599Z,98142.47
2018-09-18T21:15:44.640Z,98138.11
2018-09-18T21:18:14.634Z,98142.13
2018-09-18T21:20:44.815Z,98153.16
2018-09-18T21:23:14.956Z,98152.31
2018-09-18T21:26:18.569Z,98152.31
2018-09-18T21:31:30.784Z,98150.64
2018-09-18T21:34:00.866Z,98146.63
2018-09-18T21:36:30.962Z,98147.97
2018-09-18T21:39:01.579Z,98148.50
2018-09-18T21:41:32.181Z,98149.49
2018-09-18T21:44:02.842Z,98157.51
2018-09-18T21:46:33.857Z,98161.52
2018-09-18T21:49:03.864Z,98167.02
2018-09-18T21:51:33.910Z,98170.03
2018-09-18T21:54:03.981Z,98182.06
2018-09-18T21:56:34.054Z,98175.03
2018-09-18T21:59:04.244Z,98175.88
2018-09-18T22:01:34.506Z,98183.39
2018-09-18T22:04:05.085Z,98188.89
2018-09-18T22:06:35.518Z,98190.23
